Wetterdaten am Flugplatz MSG Übersee

alte Datensätze gelöscht
21 aktuelle Wetterdateneinträge gefunden

Datum/Uhrzeit   Windrichtung/Grad    Geschw./kmh    Temp./C°    Luftdruck/mbar    Spannung/Volt   
2026-09-04 00:04 W/271 6 22 1026 12,24
2026-09-04 00:14 W/277 6 22 1026 12,26
2026-09-04 00:24 W/269 7 22 1026 12,29
2026-09-04 00:35 W/256 7 22 1026 12,32
2026-09-04 00:45 W/257 7 22 1026 12,33
2026-09-04 00:55 W/253 7 22 1026 12,36
2026-09-04 01:05 SW/246 7 22 1026 12,38
2026-09-04 01:15 SW/247 6 22 1026 11,99
2026-09-04 01:25 SW/247 7 22 1026 12,18
2026-09-04 01:35 SW/244 10 22 1026 12,23
2026-09-04 01:45 W/249 7 22 1025 12,26
2026-09-04 01:55 W/250 7 22 1026 12,29
2026-09-04 02:05 SW/238 12 22 1025 12,30
2026-09-04 02:15 SW/237 12 22 1025 12,32
2026-09-04 02:25 SW/235 10 22 1025 12,35
2026-09-04 02:35 SW/236 7 22 1025 12,36
2026-09-04 02:45 SW/232 6 22 1025 11,98
2026-09-04 02:55 SW/231 6 22 1025 12,16
2026-09-04 03:05 SW/230 6 22 1025 12,18
2026-09-04 03:16 SW/230 5 22 1025 12,21
2026-09-04 03:26 SW/230 7 22 1025 12,23